Time;durP1;ratioP1;P1;durP2;ratioP2;P2;SDS_P1;SDS_P2;PMS_P1;PMS_P2;Temp;Humidity;BMP_temperature;BMP_pressure;BME280_temperature;BME280_humidity;BME280_pressure;Samples;Min_cycle;Max_cycle;Signal;HPM_P1;HPM_P2
2023/03/15 00:00:09;;;;;;;4.73;1.10;;;3.40;99.90;;;;;;4992537;28;20030;-79
2023/03/15 00:02:35;;;;;;;4.53;1.53;;;3.30;99.90;;;;;;4976111;28;20039;-79
2023/03/15 00:05:01;;;;;;;2.67;1.17;;;3.10;99.90;;;;;;4975610;28;20077;-79
2023/03/15 00:07:27;;;;;;;3.10;1.17;;;3.10;99.90;;;;;;4977879;28;20069;-80
2023/03/15 00:09:53;;;;;;;3.13;1.20;;;3.00;99.90;;;;;;4979955;28;20054;-79
2023/03/15 00:12:21;;;;;;;1.83;0.97;;;2.90;99.90;;;;;;4979934;28;20447;-78
2023/03/15 00:14:48;;;;;;;3.77;0.93;;;2.80;99.90;;;;;;4995663;28;20058;-78
2023/03/15 00:17:14;;;;;;;4.03;0.90;;;2.80;99.90;;;;;;4995606;28;20093;-79
2023/03/15 00:19:39;;;;;;;3.10;1.20;;;2.70;99.90;;;;;;4997038;28;20038;-79
2023/03/15 00:22:05;;;;;;;1.93;0.80;;;2.60;99.90;;;;;;4979539;28;20030;-79
2023/03/15 00:24:31;;;;;;;5.80;0.93;;;2.70;99.90;;;;;;4979606;28;20034;-79
2023/03/15 00:26:56;;;;;;;3.43;1.00;;;2.70;99.90;;;;;;4995655;28;20045;-78
2023/03/15 00:29:22;;;;;;;5.53;1.00;;;2.70;99.90;;;;;;4963366;28;20479;-78
2023/03/15 00:31:48;;;;;;;2.07;0.80;;;2.70;99.90;;;;;;4978913;28;20035;-78
2023/03/15 00:34:14;;;;;;;2.63;0.70;;;2.70;99.90;;;;;;4963331;28;20030;-79
2023/03/15 00:36:42;;;;;;;2.80;0.70;;;2.80;99.90;;;;;;4979221;28;20118;-79
2023/03/15 00:39:08;;;;;;;2.03;0.90;;;2.70;99.90;;;;;;4978748;28;20086;-78
2023/03/15 00:41:34;;;;;;;4.00;0.90;;;2.70;99.90;;;;;;4993165;28;20122;-79
2023/03/15 00:44:00;;;;;;;3.10;1.20;;;2.80;99.90;;;;;;4995389;28;20149;-79
2023/03/15 00:46:25;;;;;;;2.87;1.10;;;2.80;99.90;;;;;;4962777;28;20027;-79
2023/03/15 00:48:51;;;;;;;2.03;0.83;;;2.70;99.90;;;;;;4978425;28;20118;-78
2023/03/15 00:51:20;;;;;;;3.87;1.37;;;2.80;99.90;;;;;;4996575;28;20157;-79
2023/03/15 00:53:47;;;;;;;3.07;1.00;;;2.70;99.90;;;;;;4996284;28;20497;-79
2023/03/15 00:56:19;;;;;;;3.70;1.53;;;2.80;99.90;;;;;;4979259;28;20030;-79
2023/03/15 00:58:45;;;;;;;4.30;1.57;;;2.80;99.90;;;;;;4995867;28;20026;-79
2023/03/15 01:01:14;;;;;;;5.77;1.60;;;2.70;99.90;;;;;;4978514;28;20030;-79
2023/03/15 01:03:40;;;;;;;3.87;1.83;;;2.80;99.90;;;;;;4978550;28;20057;-78
2023/03/15 01:06:08;;;;;;;4.77;2.10;;;2.70;99.90;;;;;;4978449;28;20497;-79
2023/03/15 01:08:34;;;;;;;3.97;2.37;;;2.70;99.90;;;;;;4978845;28;20410;-78
2023/03/15 01:11:09;;;;;;;4.17;2.33;;;2.70;99.90;;;;;;4994968;28;20041;-79
2023/03/15 01:13:35;;;;;;;5.67;2.80;;;2.70;99.90;;;;;;4996490;28;20023;-78
2023/03/15 01:16:01;;;;;;;6.40;2.87;;;2.70;99.90;;;;;;4994233;28;20030;-79
2023/03/15 01:18:27;;;;;;;7.20;3.80;;;2.70;99.90;;;;;;4977744;28;20022;-78
2023/03/15 01:20:53;;;;;;;7.03;3.80;;;2.80;99.90;;;;;;4978105;28;20040;-78
2023/03/15 01:23:19;;;;;;;5.77;3.13;;;2.80;99.90;;;;;;4994325;28;20046;-79
2023/03/15 01:25:45;;;;;;;5.57;3.33;;;2.80;99.90;;;;;;4977917;28;20027;-78
2023/03/15 01:28:11;;;;;;;6.80;3.30;;;2.80;99.90;;;;;;4995462;28;20073;-79
2023/03/15 01:30:36;;;;;;;7.00;3.27;;;3.00;99.90;;;;;;4995527;28;20110;-79
2023/03/15 01:33:02;;;;;;;4.33;2.57;;;2.90;99.90;;;;;;4995449;28;20105;-79
2023/03/15 01:35:28;;;;;;;4.87;2.43;;;3.00;99.90;;;;;;4977985;28;20688;-78
2023/03/15 01:37:54;;;;;;;6.40;2.30;;;3.00;99.90;;;;;;4978045;28;20027;-79
2023/03/15 01:40:19;;;;;;;6.73;2.50;;;3.10;99.90;;;;;;4961977;28;20078;-79
2023/03/15 01:43:03;;;;;;;6.63;3.07;;;3.00;99.90;;;;;;4994116;28;20077;-79
2023/03/15 01:46:02;;;;;;;5.88;3.20;;;3.10;99.90;;;;;;4995172;28;20037;-78
2023/03/15 01:48:34;;;;;;;5.97;3.00;;;3.10;99.90;;;;;;4987756;28;20085;-78
2023/03/15 01:51:05;;;;;;;6.57;3.23;;;3.10;99.90;;;;;;4995109;28;20113;-78
2023/03/15 01:53:32;;;;;;;5.07;2.20;;;3.10;99.90;;;;;;4995307;28;20037;-78
2023/03/15 01:55:59;;;;;;;5.77;2.57;;;3.10;99.90;;;;;;4993886;28;20040;-78
2023/03/15 01:58:27;;;;;;;5.67;2.57;;;3.10;99.90;;;;;;5010431;28;20034;-78
2023/03/15 02:00:53;;;;;;;4.80;2.50;;;3.10;99.90;;;;;;4977508;28;20037;-76
2023/03/15 02:03:27;;;;;;;4.23;2.00;;;3.10;99.90;;;;;;4977254;28;20042;-78
2023/03/15 02:05:57;;;;;;;;;;;3.00;99.90;;;;;;4977673;28;20116;-78
2023/03/15 02:08:27;;;;;;;4.37;2.13;;;3.00;99.90;;;;;;4993820;28;19968;-78
2023/03/15 02:10:57;;;;;;;6.50;3.10;;;3.00;99.90;;;;;;4977298;28;20026;-78
2023/03/15 02:13:24;;;;;;;7.33;3.27;;;3.00;99.90;;;;;;4994569;28;20037;-79
2023/03/15 02:15:52;;;;;;;7.07;3.07;;;3.00;99.90;;;;;;4977328;28;20386;-78
2023/03/15 02:18:19;;;;;;;5.10;2.70;;;2.90;99.90;;;;;;4977231;28;20041;-77
2023/03/15 02:20:47;;;;;;;6.37;3.10;;;2.80;99.90;;;;;;4994582;28;20053;-78
2023/03/15 02:23:16;;;;;;;5.80;3.30;;;2.80;99.90;;;;;;4994656;28;20045;-78
2023/03/15 02:25:57;;;;;;;7.10;3.10;;;2.80;99.90;;;;;;4977254;28;20050;-78
2023/03/15 02:28:24;;;;;;;5.40;3.00;;;2.70;99.90;;;;;;4993005;28;20034;-79
2023/03/15 02:30:50;;;;;;;6.00;3.50;;;2.80;99.90;;;;;;4959687;28;20085;-78
2023/03/15 02:33:29;;;;;;;5.97;3.10;;;2.80;99.90;;;;;;4961020;28;20034;-78
2023/03/15 02:36:05;;;;;;;6.17;3.40;;;2.70;99.90;;;;;;4977373;28;20026;-78
2023/03/15 02:38:30;;;;;;;7.50;3.80;;;2.70;99.90;;;;;;4976858;28;20394;-78
2023/03/15 02:40:56;;;;;;;7.23;4.57;;;2.70;99.90;;;;;;4960227;28;20080;-77
2023/03/15 02:43:26;;;;;;;8.43;4.00;;;2.70;99.90;;;;;;4992857;28;20053;-78
2023/03/15 02:45:52;;;;;;;7.70;4.53;;;2.70;99.90;;;;;;4993013;28;20503;-78
2023/03/15 02:48:18;;;;;;;8.47;5.27;;;2.60;99.90;;;;;;4976672;28;20154;-78
2023/03/15 02:50:44;;;;;;;8.20;5.23;;;2.50;99.90;;;;;;4976437;28;20022;-78
2023/03/15 02:53:11;;;;;;;7.93;4.70;;;2.50;99.90;;;;;;4976818;28;20382;-79
2023/03/15 02:55:37;;;;;;;8.90;5.30;;;2.50;99.90;;;;;;4976174;28;20121;-79
2023/03/15 02:58:02;;;;;;;9.73;5.10;;;2.50;99.90;;;;;;4976700;28;20129;-79
2023/03/15 03:00:28;;;;;;;10.77;5.60;;;2.40;99.90;;;;;;4992422;28;20062;-79
2023/03/15 03:02:54;;;;;;;8.17;5.20;;;2.50;99.90;;;;;;4993556;28;20046;-79
2023/03/15 03:05:20;;;;;;;7.47;5.07;;;2.50;99.90;;;;;;4992786;28;20490;-79
2023/03/15 03:07:46;;;;;;;10.80;6.07;;;2.40;99.90;;;;;;4993041;28;20031;-79
2023/03/15 03:10:15;;;;;;;9.60;5.53;;;2.50;99.90;;;;;;4976161;28;20027;-78
2023/03/15 03:12:40;;;;;;;9.27;5.93;;;2.30;99.90;;;;;;4976610;28;20138;-78
2023/03/15 03:15:07;;;;;;;9.80;6.00;;;2.30;99.90;;;;;;4992601;28;20135;-78
2023/03/15 03:17:36;;;;;;;9.73;6.03;;;2.30;99.90;;;;;;4975801;28;20037;-78
2023/03/15 03:20:10;;;;;;;11.90;6.53;;;2.30;99.90;;;;;;4993730;28;20023;-78
2023/03/15 03:22:36;;;;;;;11.00;6.37;;;2.30;99.90;;;;;;4992195;28;20039;-78
2023/03/15 03:25:03;;;;;;;10.30;5.73;;;2.30;99.90;;;;;;4976155;28;20038;-77
2023/03/15 03:27:29;;;;;;;10.23;6.00;;;2.30;99.90;;;;;;4992674;28;20034;-77
2023/03/15 03:29:55;;;;;;;9.33;5.23;;;2.30;99.90;;;;;;4976072;28;20025;-78
2023/03/15 03:32:20;;;;;;;9.80;5.33;;;2.20;99.90;;;;;;4975533;28;20026;-78
2023/03/15 03:34:50;;;;;;;9.07;5.50;;;2.20;99.90;;;;;;4992538;28;20030;-78
2023/03/15 03:37:19;;;;;;;10.07;4.90;;;2.20;99.90;;;;;;4992592;28;20045;-78
2023/03/15 03:39:45;;;;;;;9.23;4.80;;;2.20;99.90;;;;;;4993575;28;20521;-78
2023/03/15 03:42:11;;;;;;;9.00;5.33;;;2.20;99.90;;;;;;4995476;28;20113;-78
2023/03/15 03:44:36;;;;;;;9.20;5.13;;;2.20;99.90;;;;;;4979990;28;20110;-78
2023/03/15 03:47:03;;;;;;;11.57;4.73;;;2.20;99.90;;;;;;4979923;28;20026;-78
2023/03/15 03:49:28;;;;;;;9.80;5.53;;;2.20;99.90;;;;;;4979820;28;20022;-78
2023/03/15 03:51:54;;;;;;;10.33;4.50;;;2.10;99.90;;;;;;4980182;28;20030;-78
2023/03/15 03:54:20;;;;;;;8.10;4.93;;;2.10;99.90;;;;;;4979878;28;20038;-77
2023/03/15 03:56:47;;;;;;;10.30;5.33;;;2.10;99.90;;;;;;4979872;28;20026;-77
2023/03/15 03:59:13;;;;;;;11.20;6.07;;;2.10;99.90;;;;;;4979786;28;20019;-77
2023/03/15 04:01:38;;;;;;;8.83;5.17;;;2.10;99.90;;;;;;4996912;28;20058;-77
2023/03/15 04:04:04;;;;;;;8.87;4.80;;;2.10;99.90;;;;;;4980180;28;20077;-78
2023/03/15 04:06:30;;;;;;;11.73;5.80;;;2.10;99.90;;;;;;4979900;28;20541;-78
2023/03/15 04:08:56;;;;;;;10.33;5.40;;;2.10;99.90;;;;;;4996959;28;20421;-78
2023/03/15 04:11:25;;;;;;;13.23;6.13;;;2.10;99.90;;;;;;4995396;28;20043;-78
2023/03/15 04:13:52;;;;;;;10.33;6.17;;;2.20;99.90;;;;;;4979586;28;20084;-78
2023/03/15 04:16:18;;;;;;;13.97;7.23;;;2.00;99.90;;;;;;4995475;28;20034;-77
2023/03/15 04:18:44;;;;;;;10.90;6.03;;;2.00;99.90;;;;;;4996854;28;20035;-78
2023/03/15 04:21:09;;;;;;;10.60;6.53;;;2.00;99.90;;;;;;4978988;28;20033;-78
2023/03/15 04:23:36;;;;;;;10.47;5.83;;;2.00;99.90;;;;;;4979663;28;20398;-77
2023/03/15 04:26:04;;;;;;;12.63;6.20;;;2.00;99.90;;;;;;4979525;28;20162;-77
2023/03/15 04:28:30;;;;;;;11.27;6.10;;;2.00;99.90;;;;;;4995616;28;20026;-77
2023/03/15 04:30:57;;;;;;;10.83;5.70;;;2.00;99.90;;;;;;4995236;28;20486;-77
2023/03/15 04:33:24;;;;;;;10.37;6.10;;;2.00;99.90;;;;;;4979429;28;20023;-77
2023/03/15 04:35:51;;;;;;;10.53;5.70;;;1.90;99.90;;;;;;4979048;28;20030;-77
2023/03/15 04:38:18;;;;;;;11.13;6.00;;;1.90;99.90;;;;;;4978932;28;20065;-77
2023/03/15 04:40:44;;;;;;;13.67;5.73;;;2.00;99.90;;;;;;4995060;28;20050;-77
2023/03/15 04:43:09;;;;;;;12.57;6.03;;;1.90;99.90;;;;;;4996876;28;20101;-76
2023/03/15 04:45:35;;;;;;;10.50;5.53;;;2.00;99.90;;;;;;4996373;28;20034;-76
2023/03/15 04:48:02;;;;;;;11.10;5.57;;;1.90;99.90;;;;;;4978887;28;20041;-77
2023/03/15 04:50:29;;;;;;;11.90;6.23;;;2.00;99.90;;;;;;4996334;28;20030;-77
2023/03/15 04:52:56;;;;;;;12.70;6.20;;;2.10;99.90;;;;;;4978093;28;20041;-76
2023/03/15 04:55:23;;;;;;;13.40;6.17;;;1.90;99.90;;;;;;4994973;28;20027;-77
2023/03/15 04:57:48;;;;;;;12.33;6.70;;;2.00;99.90;;;;;;4995001;28;20037;-76
2023/03/15 05:00:14;;;;;;;12.67;6.40;;;1.90;99.90;;;;;;4978121;28;20414;-76
2023/03/15 05:02:40;;;;;;;12.70;6.40;;;1.90;99.90;;;;;;4978689;28;20046;-77
2023/03/15 05:05:11;;;;;;;10.27;6.33;;;2.00;99.90;;;;;;4978437;28;20537;-77
2023/03/15 05:07:37;;;;;;;12.23;6.80;;;1.90;99.90;;;;;;4996263;28;20034;-77
2023/03/15 05:10:04;;;;;;;15.03;6.90;;;1.90;99.90;;;;;;4994922;28;20038;-77
2023/03/15 05:12:30;;;;;;;13.67;6.80;;;1.90;99.90;;;;;;4994577;28;20426;-77
2023/03/15 05:14:55;;;;;;;10.80;6.47;;;1.90;99.90;;;;;;4978266;28;20030;-77
2023/03/15 05:17:21;;;;;;;14.37;7.43;;;1.90;99.90;;;;;;4978011;28;20034;-77
2023/03/15 05:19:48;;;;;;;12.60;7.17;;;1.90;99.90;;;;;;4978260;28;20085;-77
2023/03/15 05:22:14;;;;;;;12.97;7.17;;;1.90;99.90;;;;;;4994316;28;20126;-77
2023/03/15 05:24:40;;;;;;;15.83;7.57;;;1.90;99.90;;;;;;4995585;28;20041;-77
2023/03/15 05:27:05;;;;;;;12.37;7.07;;;1.90;99.90;;;;;;4978437;28;20031;-77
2023/03/15 05:29:31;;;;;;;14.03;8.03;;;1.80;99.90;;;;;;4977992;28;20562;-77
2023/03/15 05:31:57;;;;;;;13.50;7.60;;;1.90;99.90;;;;;;4995083;28;20073;-77
2023/03/15 05:34:23;;;;;;;14.00;8.27;;;1.80;99.90;;;;;;4977816;28;20022;-78
2023/03/15 05:36:51;;;;;;;14.03;7.80;;;1.80;99.90;;;;;;4995144;28;20035;-77
2023/03/15 05:39:18;;;;;;;13.37;6.80;;;1.80;99.90;;;;;;4978152;28;20050;-77
2023/03/15 05:41:44;;;;;;;12.27;7.57;;;1.80;99.90;;;;;;4977924;28;20062;-77
2023/03/15 05:44:09;;;;;;;17.87;8.17;;;1.80;99.90;;;;;;4993938;28;20545;-77
2023/03/15 05:46:35;;;;;;;17.67;8.83;;;1.70;99.90;;;;;;4977447;28;20394;-77
2023/03/15 05:49:01;;;;;;;15.23;8.13;;;1.80;99.90;;;;;;4978070;28;20023;-77
2023/03/15 05:51:26;;;;;;;16.07;8.07;;;1.80;99.90;;;;;;4979301;28;20063;-77
2023/03/15 05:53:52;;;;;;;15.00;8.07;;;1.70;99.90;;;;;;4966157;28;20026;-78
2023/03/15 05:56:18;;;;;;;15.13;8.00;;;1.70;99.90;;;;;;5001658;28;20033;-77
2023/03/15 05:58:43;;;;;;;16.27;8.13;;;1.70;99.90;;;;;;4994254;28;20018;-77
2023/03/15 06:01:09;;;;;;;17.50;9.53;;;1.70;99.90;;;;;;4992672;28;20034;-77
2023/03/15 06:03:35;;;;;;;15.83;8.00;;;1.70;99.90;;;;;;4976389;28;20474;-77
2023/03/15 06:06:02;;;;;;;16.17;8.80;;;1.70;99.90;;;;;;4975937;28;20470;-77
2023/03/15 06:08:28;;;;;;;16.27;8.97;;;1.60;99.90;;;;;;4995379;28;20054;-77
2023/03/15 06:10:53;;;;;;;19.10;8.40;;;1.70;99.90;;;;;;4977243;28;20026;-77
2023/03/15 06:13:19;;;;;;;19.97;9.33;;;1.70;99.90;;;;;;4977490;28;20074;-77
2023/03/15 06:15:48;;;;;;;18.17;9.70;;;1.80;99.90;;;;;;4960968;28;20026;-78
2023/03/15 06:18:16;;;;;;;17.83;9.23;;;1.70;99.90;;;;;;4977501;28;20080;-77
2023/03/15 06:20:42;;;;;;;15.00;8.37;;;1.80;99.90;;;;;;4994643;28;20028;-77
2023/03/15 06:23:07;;;;;;;17.50;9.03;;;1.90;99.90;;;;;;4976935;28;20125;-78
2023/03/15 06:25:33;;;;;;;15.43;8.17;;;1.80;99.90;;;;;;4977317;28;20526;-78
2023/03/15 06:27:59;;;;;;;17.43;9.23;;;1.80;99.90;;;;;;4993110;28;20084;-78
2023/03/15 06:30:25;;;;;;;18.10;10.30;;;1.70;99.90;;;;;;4970510;28;20034;-78
2023/03/15 06:32:50;;;;;;;17.60;9.80;;;1.80;99.90;;;;;;4980825;28;20433;-79
2023/03/15 06:35:16;;;;;;;14.73;8.40;;;1.70;99.90;;;;;;4996392;28;20561;-78
2023/03/15 06:37:42;;;;;;;17.87;9.37;;;1.80;99.90;;;;;;4996613;28;20050;-78
2023/03/15 06:40:10;;;;;;;17.20;8.70;;;1.80;99.90;;;;;;4980078;28;20107;-78
2023/03/15 06:42:36;;;;;;;18.60;8.13;;;1.90;99.90;;;;;;4996237;28;20475;-79
2023/03/15 06:45:02;;;;;;;15.60;8.50;;;1.80;99.90;;;;;;4996064;28;20176;-79
2023/03/15 06:47:28;;;;;;;14.63;7.37;;;1.90;99.90;;;;;;4980331;28;20045;-78
2023/03/15 06:49:54;;;;;;;13.43;7.93;;;1.90;99.90;;;;;;5013649;28;20026;-78
2023/03/15 06:52:20;;;;;;;14.77;7.80;;;1.80;99.90;;;;;;5013590;28;20030;-79
2023/03/15 06:54:46;;;;;;;16.63;8.63;;;1.90;99.90;;;;;;5007539;28;20486;-78
2023/03/15 06:57:11;;;;;;;16.37;7.90;;;2.00;99.90;;;;;;4959241;28;20022;-78
2023/03/15 06:59:37;;;;;;;16.60;7.93;;;1.90;99.90;;;;;;4974615;28;20030;-79
2023/03/15 07:02:03;;;;;;;16.67;7.90;;;1.90;99.90;;;;;;4974764;28;20032;-79
2023/03/15 07:04:28;;;;;;;14.10;7.43;;;2.00;99.90;;;;;;5009661;28;20453;-79
2023/03/15 07:06:54;;;;;;;12.97;6.83;;;2.00;99.90;;;;;;4979343;28;20034;-80
2023/03/15 07:09:20;;;;;;;13.23;6.53;;;2.10;99.90;;;;;;5012892;28;20088;-79
2023/03/15 07:11:45;;;;;;;9.37;5.43;;;2.10;99.90;;;;;;4962293;28;20443;-79
2023/03/15 07:14:11;;;;;;;13.07;7.40;;;2.10;99.90;;;;;;4995333;28;20121;-79
2023/03/15 07:16:37;;;;;;;12.33;6.47;;;2.20;99.90;;;;;;4975938;28;20125;-79
2023/03/15 07:19:03;;;;;;;11.40;5.70;;;2.20;99.90;;;;;;4977968;28;20037;-79
2023/03/15 07:21:28;;;;;;;14.27;6.60;;;2.30;99.90;;;;;;4979476;28;20026;-79
2023/03/15 07:23:54;;;;;;;10.87;5.33;;;2.30;99.90;;;;;;4979817;28;20082;-79
2023/03/15 07:26:20;;;;;;;11.13;5.23;;;2.40;99.90;;;;;;4995343;28;20046;-80
2023/03/15 07:28:46;;;;;;;9.90;4.37;;;2.60;99.90;;;;;;4995325;28;20406;-79
2023/03/15 07:31:12;;;;;;;9.33;4.50;;;2.50;99.90;;;;;;4959514;28;20491;-79
2023/03/15 07:33:38;;;;;;;7.83;3.77;;;2.50;99.90;;;;;;4992958;28;20173;-80
2023/03/15 07:36:06;;;;;;;10.30;4.73;;;2.50;99.90;;;;;;4975998;28;20482;-80
2023/03/15 07:38:32;;;;;;;9.53;4.37;;;2.60;99.90;;;;;;4993999;28;20113;-80
2023/03/15 07:41:01;;;;;;;11.00;4.27;;;2.60;99.90;;;;;;4991964;28;20104;-80
2023/03/15 07:43:26;;;;;;;14.07;4.10;;;2.60;99.90;;;;;;4991676;28;20601;-80
2023/03/15 07:45:52;;;;;;;11.27;4.13;;;2.70;99.90;;;;;;4993296;28;20098;-80
2023/03/15 07:48:18;;;;;;;10.80;4.20;;;2.70;99.90;;;;;;4960029;28;20034;-80
2023/03/15 07:50:44;;;;;;;12.93;4.93;;;2.70;99.90;;;;;;4998849;28;20467;-80
2023/03/15 07:53:10;;;;;;;13.73;6.60;;;2.80;99.90;;;;;;4993872;28;20022;-79
2023/03/15 07:55:36;;;;;;;13.10;5.60;;;2.70;99.90;;;;;;4993901;28;20030;-80
2023/03/15 07:58:02;;;;;;;17.00;7.00;;;2.80;99.90;;;;;;4978400;28;20044;-80
2023/03/15 08:00:28;;;;;;;12.43;6.30;;;2.90;99.90;;;;;;4994030;28;20049;-79
2023/03/15 08:02:54;;;;;;;13.77;6.93;;;2.90;99.90;;;;;;4994040;28;20046;-79
2023/03/15 08:05:20;;;;;;;13.27;6.43;;;2.90;99.90;;;;;;4994466;28;20018;-79
2023/03/15 08:07:47;;;;;;;12.40;6.30;;;3.00;99.90;;;;;;4986830;28;20030;-79
2023/03/15 08:10:14;;;;;;;13.13;6.40;;;3.10;99.90;;;;;;4991779;28;20019;-80
2023/03/15 08:12:41;;;;;;;10.20;5.17;;;3.10;99.90;;;;;;4995168;28;20143;-80
2023/03/15 08:15:12;;;;;;;15.80;6.47;;;3.20;99.90;;;;;;5010911;28;20034;-80
2023/03/15 08:17:39;;;;;;;12.57;6.53;;;3.20;99.90;;;;;;4978695;28;20103;-80
2023/03/15 08:20:06;;;;;;;11.27;4.77;;;3.20;99.90;;;;;;5012924;28;20052;-80
2023/03/15 08:22:32;;;;;;;16.47;5.07;;;3.20;99.90;;;;;;4995134;28;20489;-80
2023/03/15 08:24:58;;;;;;;9.43;4.43;;;3.20;99.90;;;;;;4995007;28;20038;-80
2023/03/15 08:27:24;;;;;;;10.57;4.33;;;3.30;99.90;;;;;;4995179;28;20053;-80
2023/03/15 08:29:50;;;;;;;10.47;4.20;;;3.30;99.90;;;;;;4997897;28;20056;-80
2023/03/15 08:32:17;;;;;;;8.37;3.37;;;3.40;99.90;;;;;;4997434;28;20064;-80
2023/03/15 08:34:43;;;;;;;7.90;3.73;;;3.40;99.90;;;;;;5016117;28;20108;-80
2023/03/15 08:37:12;;;;;;;8.27;4.27;;;3.50;99.90;;;;;;5016094;28;20489;-80
2023/03/15 08:39:38;;;;;;;6.63;2.90;;;3.60;99.90;;;;;;4989745;28;20092;-81
2023/03/15 08:42:05;;;;;;;7.10;3.07;;;3.60;99.90;;;;;;4996199;28;20482;-80
2023/03/15 08:44:31;;;;;;;9.10;3.03;;;3.70;99.90;;;;;;4996509;28;20037;-81
2023/03/15 08:46:57;;;;;;;7.43;2.67;;;3.70;99.90;;;;;;4962790;28;20487;-81
2023/03/15 08:49:23;;;;;;;8.70;3.40;;;3.70;99.90;;;;;;4978645;28;20138;-80
2023/03/15 08:51:49;;;;;;;7.20;2.77;;;3.90;99.90;;;;;;4979115;28;20030;-81
2023/03/15 08:54:14;;;;;;;9.17;2.97;;;3.90;99.90;;;;;;4962916;28;20037;-81
2023/03/15 08:56:41;;;;;;;7.03;3.23;;;4.00;99.90;;;;;;4962988;28;20455;-80
2023/03/15 08:59:07;;;;;;;5.53;2.50;;;4.10;99.90;;;;;;4996300;28;20027;-80
2023/03/15 09:01:33;;;;;;;7.63;2.47;;;4.20;99.90;;;;;;4996059;28;20026;-80
2023/03/15 09:04:00;;;;;;;8.83;2.60;;;4.20;99.90;;;;;;4978952;28;20034;-80
2023/03/15 09:06:27;;;;;;;7.17;2.30;;;4.30;99.90;;;;;;4996016;28;20023;-80
2023/03/15 09:08:53;;;;;;;8.87;2.20;;;4.40;99.90;;;;;;4978169;28;20109;-80
2023/03/15 09:11:20;;;;;;;9.30;2.50;;;4.50;99.90;;;;;;4963010;28;20034;-79
2023/03/15 09:13:46;;;;;;;6.40;2.43;;;4.50;99.90;;;;;;4978521;28;20035;-81
2023/03/15 09:16:11;;;;;;;11.97;2.87;;;4.60;99.90;;;;;;4995927;28;20390;-80
2023/03/15 09:18:39;;;;;;;5.60;2.30;;;4.70;99.90;;;;;;4962080;28;20030;-80
2023/03/15 09:21:05;;;;;;;8.63;1.83;;;4.80;99.90;;;;;;4962143;28;20103;-80
2023/03/15 09:23:31;;;;;;;4.47;1.03;;;4.80;99.90;;;;;;4978081;28;20038;-80
2023/03/15 09:25:57;;;;;;;5.60;1.40;;;4.90;99.90;;;;;;4962043;28;20077;-80
2023/03/15 09:28:24;;;;;;;9.50;1.70;;;5.00;99.90;;;;;;4977834;28;20035;-81
2023/03/15 09:30:50;;;;;;;7.80;1.70;;;5.00;99.90;;;;;;4962365;28;20026;-80
2023/03/15 09:33:15;;;;;;;8.97;2.97;;;5.00;99.90;;;;;;4978422;28;20348;-80
2023/03/15 09:35:41;;;;;;;8.37;1.33;;;5.20;99.90;;;;;;4977975;28;20105;-81
2023/03/15 09:38:07;;;;;;;10.00;1.50;;;5.30;99.90;;;;;;4995047;28;20035;-82
2023/03/15 09:40:44;;;;;;;4.00;1.63;;;5.30;99.90;;;;;;4971690;28;20133;-80
2023/03/15 09:43:33;;;;;;;9.40;2.23;;;5.40;99.90;;;;;;5015036;28;20123;-80
2023/03/15 09:45:59;;;;;;;8.37;1.83;;;5.50;99.90;;;;;;5015298;28;20022;-80
2023/03/15 09:48:32;;;;;;;10.60;1.50;;;5.40;99.90;;;;;;5014860;28;20032;-81
2023/03/15 09:51:08;;;;;;;5.00;1.27;;;5.60;99.90;;;;;;4997125;28;20109;-80
2023/03/15 09:53:47;;;;;;;6.30;1.57;;;5.60;99.90;;;;;;4996792;28;20029;-80
2023/03/15 09:56:27;;;;;;;4.00;1.33;;;5.70;99.90;;;;;;4993976;28;20110;-80
2023/03/15 09:58:57;;;;;;;9.37;1.73;;;5.80;99.90;;;;;;4996535;28;20164;-81
2023/03/15 10:01:39;;;;;;;11.23;1.43;;;5.90;99.90;;;;;;5010741;28;20404;-80
2023/03/15 10:04:09;;;;;;;7.17;1.30;;;6.00;99.90;;;;;;4976852;28;20039;-81
2023/03/15 10:06:37;;;;;;;3.87;1.30;;;6.20;99.90;;;;;;4977305;28;20030;-81
2023/03/15 10:09:11;;;;;;;6.77;1.10;;;6.50;99.90;;;;;;4977597;28;20386;-81
2023/03/15 10:12:03;;;;;;;4.57;0.70;;;6.70;99.90;;;;;;4978083;28;20081;-81
2023/03/15 10:14:35;;;;;;;4.83;1.10;;;7.10;99.90;;;;;;4976963;28;20533;-81
2023/03/15 10:17:10;;;;;;;5.13;1.00;;;7.50;99.90;;;;;;5002395;28;20033;-81
2023/03/15 10:19:53;;;;;;;2.90;0.90;;;8.10;99.90;;;;;;5013024;28;20033;-82
2023/03/15 10:22:50;;;;;;;5.13;0.90;;;8.90;99.90;;;;;;4993342;28;20080;-82
2023/03/15 10:25:23;;;;;;;6.40;1.10;;;9.90;99.90;;;;;;4996525;28;20164;-81
2023/03/15 10:27:58;;;;;;;3.65;0.40;;;10.70;99.90;;;;;;5014084;28;20033;-81
2023/03/15 10:30:32;;;;;;;2.97;0.50;;;11.60;99.90;;;;;;4992915;28;20034;-81
2023/03/15 10:33:12;;;;;;;2.03;0.50;;;12.60;99.90;;;;;;4998125;28;20033;-82
2023/03/15 10:35:38;;;;;;;3.88;0.82;;;13.50;99.90;;;;;;4987051;28;20036;-82
2023/03/15 10:38:14;;;;;;;4.53;0.73;;;14.30;98.70;;;;;;4976947;28;20022;-82
2023/03/15 10:40:55;;;;;;;5.28;0.85;;;15.10;94.40;;;;;;4989241;28;20046;-82
2023/03/15 10:43:24;;;;;;;5.28;0.68;;;15.80;92.00;;;;;;4994911;28;20075;-82
2023/03/15 10:46:20;;;;;;;4.05;0.70;;;16.50;92.10;;;;;;4994714;28;20473;-82
2023/03/15 10:49:12;;;;;;;5.75;0.60;;;17.00;84.30;;;;;;5007335;28;20541;-82
2023/03/15 10:51:47;;;;;;;4.53;0.70;;;17.70;80.70;;;;;;4976001;28;20446;-82
2023/03/15 10:54:22;;;;;;;4.18;0.55;;;18.40;73.50;;;;;;4997014;28;20054;-82
2023/03/15 10:57:01;;;;;;;2.80;0.68;;;18.90;70.00;;;;;;4993658;28;20029;-82
2023/03/15 10:59:31;;;;;;;4.70;0.50;;;19.30;66.00;;;;;;4993954;28;20085;-81
2023/03/15 11:02:11;;;;;;;1.77;0.40;;;19.70;61.40;;;;;;4986253;28;20037;-80
2023/03/15 11:04:49;;;;;;;2.95;0.40;;;20.00;57.60;;;;;;5005274;28;20042;-81
2023/03/15 11:07:15;;;;;;;4.03;0.60;;;20.30;57.30;;;;;;4976791;28;20105;-80
2023/03/15 11:09:43;;;;;;;4.10;0.63;;;20.70;56.80;;;;;;5002284;28;20129;-80
2023/03/15 11:12:15;;;;;;;2.00;0.40;;;20.90;54.30;;;;;;4993620;28;20098;-81
2023/03/15 11:14:45;;;;;;;6.15;0.90;;;21.20;53.90;;;;;;4983095;28;20145;-80
2023/03/15 11:17:24;;;;;;;3.30;0.80;;;21.40;50.70;;;;;;4978046;28;20017;-82
2023/03/15 11:20:22;;;;;;;4.85;0.70;;;21.70;48.80;;;;;;5004385;28;20092;-81
2023/03/15 11:22:48;;;;;;;4.88;0.60;;;21.80;46.70;;;;;;4993467;28;20112;-81
2023/03/15 11:25:16;;;;;;;5.28;0.50;;;21.80;47.10;;;;;;4993977;28;20538;-82
2023/03/15 11:27:43;;;;;;;5.53;0.70;;;21.90;45.80;;;;;;4978420;28;20057;-81
2023/03/15 11:30:14;;;;;;;3.55;0.60;;;22.10;45.80;;;;;;4993247;28;20030;-82
2023/03/15 11:32:41;;;;;;;6.22;1.00;;;22.40;44.20;;;;;;5000935;28;20022;-81
2023/03/15 11:35:13;;;;;;;3.22;0.60;;;22.60;42.00;;;;;;4985617;28;20030;-81
2023/03/15 11:37:52;;;;;;;4.95;0.60;;;22.50;41.40;;;;;;4993690;28;20482;-81
2023/03/15 11:40:21;;;;;;;5.95;0.60;;;22.50;41.60;;;;;;4980131;28;20042;-81
2023/03/15 11:43:01;;;;;;;2.85;0.60;;;22.70;41.10;;;;;;4993266;28;20112;-81
2023/03/15 11:45:33;;;;;;;1.58;0.43;;;22.80;39.90;;;;;;5007906;28;20018;-80
2023/03/15 11:48:06;;;;;;;4.97;0.75;;;22.90;39.60;;;;;;4993808;28;20030;-83
2023/03/15 11:50:32;;;;;;;3.58;0.63;;;22.90;38.70;;;;;;4975505;28;20029;-81
2023/03/15 11:53:02;;;;;;;3.95;0.60;;;22.70;38.10;;;;;;4975538;28;20030;-82
2023/03/15 11:55:31;;;;;;;2.75;0.57;;;22.70;38.20;;;;;;4983075;28;20031;-82
2023/03/15 11:58:16;;;;;;;3.33;0.55;;;22.70;37.40;;;;;;4993178;28;20383;-83
2023/03/15 12:00:45;;;;;;;5.30;0.85;;;22.60;37.20;;;;;;5005285;28;20022;-82
2023/03/15 12:03:27;;;;;;;5.55;0.60;;;22.80;37.80;;;;;;4998506;28;20034;-82
2023/03/15 12:06:33;;;;;;;3.00;0.50;;;23.00;37.40;;;;;;5004673;28;20022;-82
2023/03/15 12:09:00;;;;;;;4.45;0.60;;;23.20;36.90;;;;;;4978190;28;20451;-82
2023/03/15 12:11:26;;;;;;;5.47;0.88;;;23.30;36.60;;;;;;5011841;28;20505;-80
2023/03/15 12:13:57;;;;;;;2.75;0.40;;;23.30;36.30;;;;;;4995848;28;20034;-80
2023/03/15 12:16:36;;;;;;;2.42;0.50;;;23.30;36.20;;;;;;5004233;28;20027;-80
2023/03/15 12:19:09;;;;;;;4.97;0.70;;;23.40;35.80;;;;;;4996677;28;20054;-80
2023/03/15 12:21:44;;;;;;;3.60;0.70;;;23.40;35.70;;;;;;4994669;28;20458;-80
2023/03/15 12:24:37;;;;;;;3.25;0.68;;;23.50;36.00;;;;;;4978646;28;20049;-80
2023/03/15 12:27:15;;;;;;;4.97;0.50;;;23.70;35.30;;;;;;4977291;28;20072;-80
2023/03/15 12:29:44;;;;;;;3.08;0.50;;;23.90;34.80;;;;;;4982528;28;20026;-80
2023/03/15 12:32:19;;;;;;;2.35;0.52;;;24.00;35.00;;;;;;4994945;28;20034;-81
2023/03/15 12:35:14;;;;;;;3.83;0.65;;;24.20;34.40;;;;;;5004008;28;20026;-83
2023/03/15 12:37:44;;;;;;;3.35;0.68;;;24.40;33.80;;;;;;5005885;28;20379;-80
2023/03/15 12:40:17;;;;;;;3.45;0.52;;;24.50;34.30;;;;;;4997526;28;20406;-80
2023/03/15 12:42:43;;;;;;;4.07;0.75;;;24.70;33.70;;;;;;5010707;28;20026;-80
2023/03/15 12:45:15;;;;;;;5.15;0.70;;;24.90;33.00;;;;;;5013877;28;20026;-81
2023/03/15 12:47:52;;;;;;;6.22;1.00;;;24.90;32.60;;;;;;5010897;28;20066;-81
2023/03/15 12:50:40;;;;;;;2.00;0.40;;;24.90;32.40;;;;;;4996579;28;20023;-80
2023/03/15 12:53:30;;;;;;;3.95;0.57;;;25.00;32.20;;;;;;4995095;28;20026;-80
2023/03/15 12:56:10;;;;;;;2.58;0.52;;;25.20;32.40;;;;;;4994856;28;20048;-81
2023/03/15 12:58:38;;;;;;;6.30;0.52;;;25.50;32.90;;;;;;4978821;28;20379;-84